Time;durP1;ratioP1;P1;durP2;ratioP2;P2;SDS_P1;SDS_P2;PMS_P1;PMS_P2;Temp;Humidity;BMP_temperature;BMP_pressure;BME280_temperature;BME280_humidity;BME280_pressure;Samples;Min_cycle;Max_cycle;Signal;HPM_P1;HPM_P2
2023/06/15 00:00:31;;;;;;;;;;;21.10;61.00;;;;;;5071643;28;19966;-67
2023/06/15 00:02:57;;;;;;;;;;;21.00;61.10;;;;;;5007316;28;19917;-68
2023/06/15 00:05:22;;;;;;;;;;;21.00;61.00;;;;;;4995739;28;19917;-68
2023/06/15 00:07:48;;;;;;;;;;;21.00;61.40;;;;;;4982524;28;19940;-68
2023/06/15 00:10:14;;;;;;;;;;;20.90;61.30;;;;;;4969607;28;19918;-68
2023/06/15 00:12:39;;;;;;;;;;;20.90;61.40;;;;;;5004904;28;19974;-68
2023/06/15 00:15:06;;;;;;;;;;;20.90;61.10;;;;;;5007158;28;19910;-68
2023/06/15 00:17:31;;;;;;;;;;;20.80;61.40;;;;;;4972076;28;20013;-67
2023/06/15 00:20:00;;;;;;;;;;;20.80;61.20;;;;;;4968035;28;20016;-68
2023/06/15 00:22:26;;;;;;;;;;;20.80;61.60;;;;;;4968039;28;19921;-68
2023/06/15 00:24:52;;;;;;;;;;;20.70;61.60;;;;;;4967790;28;19918;-68
2023/06/15 00:27:18;;;;;;;;;;;20.80;61.80;;;;;;4967755;28;19917;-68
2023/06/15 00:29:43;;;;;;;;;;;20.70;61.80;;;;;;4967934;28;19929;-68
2023/06/15 00:32:09;;;;;;;;;;;20.70;62.00;;;;;;5001203;28;20358;-68
2023/06/15 00:34:34;;;;;;;;;;;20.60;62.00;;;;;;5006398;28;19916;-68
2023/06/15 00:36:59;;;;;;;;;;;20.60;62.00;;;;;;5005789;28;19914;-68
2023/06/15 00:39:25;;;;;;;;;;;20.60;62.00;;;;;;4987369;28;19939;-68
2023/06/15 00:41:50;;;;;;;;;;;20.60;62.10;;;;;;4985870;28;19910;-68
2023/06/15 00:44:16;;;;;;;;;;;20.50;62.20;;;;;;4986124;28;19922;-68
2023/06/15 00:46:41;;;;;;;;;;;20.50;62.20;;;;;;4984691;28;19979;-68
2023/06/15 00:49:07;;;;;;;;;;;20.50;62.10;;;;;;4986822;28;20401;-68
2023/06/15 00:51:34;;;;;;;;;;;20.50;62.20;;;;;;4986960;28;19914;-68
2023/06/15 00:54:00;;;;;;;;;;;20.40;62.50;;;;;;5001228;28;19915;-68
2023/06/15 00:56:29;;;;;;;;;;;20.40;62.50;;;;;;4986695;28;19914;-68
2023/06/15 00:58:55;;;;;;;;;;;20.40;62.60;;;;;;4986776;28;19932;-68
2023/06/15 01:01:21;;;;;;;;;;;20.30;62.40;;;;;;4996334;28;20433;-68
2023/06/15 01:03:46;;;;;;;;;;;20.30;62.70;;;;;;5006321;28;20004;-68
2023/06/15 01:06:16;;;;;;;;;;;20.30;62.70;;;;;;4988020;28;19931;-68
2023/06/15 01:08:44;;;;;;;;;;;20.30;62.40;;;;;;4974203;28;19925;-68
2023/06/15 01:11:09;;;;;;;;;;;20.20;62.80;;;;;;4967308;28;19922;-68
2023/06/15 01:13:36;;;;;;;;;;;20.20;62.60;;;;;;4967256;28;19914;-68
2023/06/15 01:16:03;;;;;;;;;;;20.20;63.00;;;;;;4972077;28;20696;-68
2023/06/15 01:18:31;;;;;;;;;;;20.20;62.80;;;;;;4986867;28;19918;-68
2023/06/15 01:20:56;;;;;;;;;;;20.10;63.00;;;;;;4986579;28;19914;-68
2023/06/15 01:23:22;;;;;;;;;;;20.10;62.80;;;;;;4986288;28;19922;-68
2023/06/15 01:25:49;;;;;;;;;;;20.10;62.80;;;;;;4986136;28;19914;-68
2023/06/15 01:28:20;;;;;;;;;;;20.00;63.00;;;;;;4986497;28;20574;-68
2023/06/15 01:30:53;;;;;;;;;;;20.00;63.20;;;;;;4990899;28;19967;-68
2023/06/15 01:33:20;;;;;;;;;;;20.00;63.50;;;;;;4992018;28;20285;-68
2023/06/15 01:35:45;;;;;;;;;;;20.00;63.10;;;;;;4985982;28;19983;-68
2023/06/15 01:38:11;;;;;;;;;;;19.90;63.20;;;;;;4978179;28;19914;-67
2023/06/15 01:40:38;;;;;;;;;;;19.90;63.20;;;;;;4965566;28;19925;-68
2023/06/15 01:43:13;;;;;;;;;;;19.90;63.20;;;;;;4967011;28;19918;-68
2023/06/15 01:45:41;;;;;;;;;;;19.90;63.50;;;;;;4972596;28;20290;-68
2023/06/15 01:48:07;;;;;;;;;;;19.80;63.70;;;;;;4985765;28;19920;-68
2023/06/15 01:50:33;;;;;;;;;;;19.80;63.50;;;;;;4987854;28;19918;-68
2023/06/15 01:52:59;;;;;;;;;;;19.80;63.90;;;;;;4989445;28;19914;-68
2023/06/15 01:55:25;;;;;;;;;;;19.80;63.90;;;;;;4989419;28;19921;-68
2023/06/15 01:57:52;;;;;;;;;;;19.70;63.80;;;;;;4989554;28;19963;-68
2023/06/15 02:00:18;;;;;;;;;;;19.70;63.80;;;;;;4991003;28;19944;-67
2023/06/15 02:02:43;;;;;;;;;;;19.70;63.80;;;;;;5076323;28;19952;-68
2023/06/15 02:05:09;;;;;;;;;;;19.60;63.90;;;;;;4998311;28;20441;-68
2023/06/15 02:07:35;;;;;;;;;;;19.70;64.10;;;;;;4968411;28;19910;-68
2023/06/15 02:10:01;;;;;;;;;;;19.60;63.40;;;;;;4970024;28;20713;-68
2023/06/15 02:12:26;;;;;;;;;;;19.60;64.00;;;;;;4984749;28;20290;-67
2023/06/15 02:14:52;;;;;;;;;;;19.60;63.90;;;;;;4969865;28;19915;-68
2023/06/15 02:17:18;;;;;;;;;;;19.50;64.30;;;;;;4984765;28;19953;-68
2023/06/15 02:19:46;;;;;;;;;;;19.50;64.20;;;;;;4988896;28;20631;-68
2023/06/15 02:22:12;;;;;;;;;;;19.50;64.30;;;;;;4988824;28;20328;-68
2023/06/15 02:24:38;;;;;;;;;;;19.40;64.40;;;;;;4988329;28;19914;-68
2023/06/15 02:27:04;;;;;;;;;;;19.40;64.40;;;;;;4988823;28;19936;-68
2023/06/15 02:29:29;;;;;;;;;;;19.50;64.70;;;;;;4988760;28;19961;-68
2023/06/15 02:31:55;;;;;;;;;;;19.40;64.50;;;;;;5003089;28;19959;-68
2023/06/15 02:34:20;;;;;;;;;;;19.40;64.50;;;;;;5008174;28;20008;-67
2023/06/15 02:36:48;;;;;;;;;;;19.40;64.70;;;;;;5008119;28;20021;-68
2023/06/15 02:39:14;;;;;;;;;;;19.30;64.60;;;;;;4991785;28;20279;-68
2023/06/15 02:41:39;;;;;;;;;;;19.30;64.70;;;;;;4987630;28;19914;-68
2023/06/15 02:44:05;;;;;;;;;;;19.30;65.00;;;;;;4988691;28;19914;-67
2023/06/15 02:46:30;;;;;;;;;;;19.30;64.90;;;;;;4984053;28;20012;-68
2023/06/15 02:48:56;;;;;;;;;;;19.20;65.10;;;;;;4988709;28;20413;-68
2023/06/15 02:51:22;;;;;;;;;;;19.20;64.80;;;;;;4988600;28;19914;-68
2023/06/15 02:53:48;;;;;;;;;;;19.20;65.10;;;;;;5003393;28;20374;-68
2023/06/15 02:56:18;;;;;;;;;;;19.20;65.30;;;;;;4988448;28;19914;-67
2023/06/15 02:58:45;;;;;;;;;;;19.10;65.00;;;;;;4988455;28;20356;-68
2023/06/15 03:01:11;;;;;;;;;;;19.20;65.20;;;;;;4996030;28;19909;-68
2023/06/15 03:03:40;;;;;;;;;;;19.10;65.20;;;;;;5008117;28;19918;-68
2023/06/15 03:06:08;;;;;;;;;;;19.10;65.30;;;;;;4990579;28;20362;-68
2023/06/15 03:08:34;;;;;;;;;;;19.10;65.30;;;;;;4986588;28;19953;-68
2023/06/15 03:11:00;;;;;;;;;;;19.10;65.50;;;;;;4987138;28;19997;-69
2023/06/15 03:13:26;;;;;;;;;;;19.10;65.40;;;;;;5012933;28;19995;-69
2023/06/15 03:15:52;;;;;;;;;;;19.00;65.60;;;;;;5046304;28;19968;-69
2023/06/15 03:18:17;;;;;;;;;;;19.00;65.60;;;;;;4988945;28;19916;-68
2023/06/15 03:20:52;;;;;;;;;;;19.00;65.70;;;;;;4988478;28;20513;-69
2023/06/15 03:23:21;;;;;;;;;;;19.00;65.40;;;;;;5072274;28;19922;-69
2023/06/15 03:25:46;;;;;;;;;;;18.90;65.60;;;;;;5090230;28;19920;-69
2023/06/15 03:28:12;;;;;;;;;;;18.90;65.80;;;;;;5089032;28;19918;-69
2023/06/15 03:30:40;;;;;;;;;;;18.90;65.80;;;;;;5067629;28;19918;-69
2023/06/15 03:33:06;;;;;;;;;;;18.90;66.00;;;;;;5007612;28;19909;-69
2023/06/15 03:35:33;;;;;;;;;;;18.90;65.80;;;;;;5007376;28;20381;-69
2023/06/15 03:37:58;;;;;;;;;;;18.90;65.70;;;;;;5000860;28;19910;-68
2023/06/15 03:40:24;;;;;;;;;;;18.90;65.90;;;;;;4987757;28;19914;-69
2023/06/15 03:42:49;;;;;;;;;;;18.80;65.80;;;;;;4986635;28;19917;-68
2023/06/15 03:45:15;;;;;;;;;;;18.80;66.00;;;;;;4986798;28;19920;-69
2023/06/15 03:47:40;;;;;;;;;;;18.80;66.10;;;;;;4987181;28;19945;-68
2023/06/15 03:50:06;;;;;;;;;;;18.80;66.20;;;;;;4986534;28;19972;-69
2023/06/15 03:52:32;;;;;;;;;;;18.80;66.00;;;;;;4987609;28;19913;-69
2023/06/15 03:54:58;;;;;;;;;;;18.80;66.20;;;;;;4987602;28;19940;-68
2023/06/15 03:57:23;;;;;;;;;;;18.70;66.20;;;;;;4987333;28;19914;-69
2023/06/15 03:59:49;;;;;;;;;;;18.70;66.30;;;;;;4987527;28;19917;-68
2023/06/15 04:02:15;;;;;;;;;;;18.80;66.40;;;;;;5004223;28;19910;-69
2023/06/15 04:04:40;;;;;;;;;;;18.70;66.40;;;;;;5001491;28;19925;-69
2023/06/15 04:07:08;;;;;;;;;;;18.70;66.50;;;;;;4987222;28;19947;-68
2023/06/15 04:09:34;;;;;;;;;;;18.70;66.40;;;;;;4968145;28;19921;-69
2023/06/15 04:12:00;;;;;;;;;;;18.70;66.50;;;;;;4982533;28;20032;-69
2023/06/15 04:14:25;;;;;;;;;;;18.60;66.50;;;;;;4967353;28;19914;-68
2023/06/15 04:16:51;;;;;;;;;;;18.70;66.70;;;;;;4979205;28;19925;-68
2023/06/15 04:19:22;;;;;;;;;;;18.60;66.80;;;;;;4987227;28;20389;-68
2023/06/15 04:21:50;;;;;;;;;;;18.60;66.70;;;;;;4987304;28;19974;-68
2023/06/15 04:24:16;;;;;;;;;;;18.60;66.50;;;;;;4987122;28;20287;-68
2023/06/15 04:26:42;;;;;;;;;;;18.60;66.70;;;;;;4987158;28;19925;-68
2023/06/15 04:29:07;;;;;;;;;;;18.60;66.70;;;;;;4987236;28;19986;-69
2023/06/15 04:31:33;;;;;;;;;;;18.60;66.80;;;;;;4998267;28;20037;-68
2023/06/15 04:34:00;;;;;;;;;;;18.60;66.80;;;;;;5005396;28;19922;-68
2023/06/15 04:36:27;;;;;;;;;;;18.50;66.80;;;;;;5006312;28;20277;-68
2023/06/15 04:38:52;;;;;;;;;;;18.60;66.90;;;;;;4992732;28;20263;-68
2023/06/15 04:41:24;;;;;;;;;;;18.50;66.80;;;;;;4986982;28;19914;-69
2023/06/15 04:43:50;;;;;;;;;;;18.50;66.90;;;;;;4987062;28;20612;-69
2023/06/15 04:46:16;;;;;;;;;;;18.50;66.90;;;;;;4985956;28;19956;-68
2023/06/15 04:48:43;;;;;;;;;;;18.50;67.20;;;;;;4986586;28;19914;-68
2023/06/15 04:51:09;;;;;;;;;;;18.50;67.10;;;;;;4986374;28;20287;-69
2023/06/15 04:53:35;;;;;;;;;;;18.50;67.00;;;;;;4986840;28;19914;-69
2023/06/15 04:56:01;;;;;;;;;;;18.50;67.00;;;;;;4986449;28;19914;-68
2023/06/15 04:58:27;;;;;;;;;;;18.50;67.10;;;;;;4986548;28;19913;-68
2023/06/15 05:00:52;;;;;;;;;;;18.50;67.20;;;;;;4992357;28;20262;-68
2023/06/15 05:03:18;;;;;;;;;;;18.50;67.20;;;;;;5006310;28;19941;-68
2023/06/15 05:05:44;;;;;;;;;;;18.50;67.10;;;;;;4985612;28;19971;-68
2023/06/15 05:08:10;;;;;;;;;;;18.50;67.70;;;;;;4986741;28;20417;-69
2023/06/15 05:10:35;;;;;;;;;;;18.50;67.00;;;;;;5018136;28;19910;-68
2023/06/15 05:13:03;;;;;;;;;;;18.50;67.10;;;;;;4996110;28;19917;-69
2023/06/15 05:15:28;;;;;;;;;;;18.50;67.10;;;;;;4982975;28;19910;-68
2023/06/15 05:17:54;;;;;;;;;;;18.50;67.30;;;;;;4989226;28;20715;-69
2023/06/15 05:20:20;;;;;;;;;;;18.50;67.30;;;;;;4990341;28;19918;-68
2023/06/15 05:22:45;;;;;;;;;;;18.50;67.20;;;;;;5001441;28;19922;-68
2023/06/15 05:25:11;;;;;;;;;;;18.50;67.20;;;;;;4997642;28;19957;-69
2023/06/15 05:27:37;;;;;;;;;;;18.50;67.30;;;;;;4993995;28;20374;-69
2023/06/15 05:30:04;;;;;;;;;;;18.50;67.30;;;;;;4986294;28;19957;-68
2023/06/15 05:32:29;;;;;;;;;;;18.50;67.30;;;;;;4998473;28;19958;-69
2023/06/15 05:34:55;;;;;;;;;;;18.50;67.20;;;;;;4985289;28;19922;-68
2023/06/15 05:37:20;;;;;;;;;;;18.60;67.30;;;;;;4990751;28;19959;-68
2023/06/15 05:39:46;;;;;;;;;;;18.50;67.40;;;;;;4989675;28;19920;-68
2023/06/15 05:42:12;;;;;;;;;;;18.60;67.50;;;;;;4991621;28;20326;-68
2023/06/15 05:44:37;;;;;;;;;;;18.60;67.60;;;;;;4988743;28;19914;-68
2023/06/15 05:47:03;;;;;;;;;;;18.60;67.50;;;;;;5010325;28;19910;-69
2023/06/15 05:49:28;;;;;;;;;;;18.60;67.40;;;;;;5024265;28;19950;-68
2023/06/15 05:51:54;;;;;;;;;;;18.60;67.50;;;;;;4986874;28;19967;-68
2023/06/15 05:54:20;;;;;;;;;;;18.60;67.40;;;;;;4992200;28;19910;-68
2023/06/15 05:56:45;;;;;;;;;;;18.60;68.20;;;;;;4985882;28;19914;-68
2023/06/15 05:59:11;;;;;;;;;;;18.60;67.60;;;;;;4993002;28;19920;-68
2023/06/15 06:01:36;;;;;;;;;;;18.60;67.60;;;;;;4991065;28;19918;-68
2023/06/15 06:04:02;;;;;;;;;;;18.60;67.50;;;;;;4993829;28;19966;-69
2023/06/15 06:06:27;;;;;;;;;;;18.70;67.60;;;;;;4984930;28;19917;-68
2023/06/15 06:08:53;;;;;;;;;;;18.70;67.60;;;;;;4996605;28;19917;-69
2023/06/15 06:11:18;;;;;;;;;;;18.70;67.50;;;;;;4983946;28;19913;-68
2023/06/15 06:13:44;;;;;;;;;;;18.70;67.50;;;;;;4993751;28;19921;-68
2023/06/15 06:16:10;;;;;;;;;;;18.70;67.50;;;;;;4983900;28;19952;-69
2023/06/15 06:18:35;;;;;;;;;;;18.80;67.50;;;;;;4993590;28;19965;-68
2023/06/15 06:21:01;;;;;;;;;;;18.70;67.50;;;;;;4983934;28;20001;-68
2023/06/15 06:23:26;;;;;;;;;;;18.80;67.60;;;;;;4993689;28;19979;-69
2023/06/15 06:25:52;;;;;;;;;;;18.70;67.40;;;;;;4982510;28;19925;-68
2023/06/15 06:28:17;;;;;;;;;;;18.80;67.40;;;;;;4995015;28;20251;-69
2023/06/15 06:30:43;;;;;;;;;;;18.80;67.40;;;;;;4986901;28;19909;-69
2023/06/15 06:33:08;;;;;;;;;;;18.80;67.50;;;;;;4996041;28;19986;-68
2023/06/15 06:35:34;;;;;;;;;;;18.80;67.30;;;;;;4982350;28;20367;-68
2023/06/15 06:37:59;;;;;;;;;;;18.80;67.40;;;;;;4994653;28;20367;-69
2023/06/15 06:40:28;;;;;;;;;;;18.80;67.30;;;;;;4991820;28;19921;-69
2023/06/15 06:42:54;;;;;;;;;;;18.90;67.30;;;;;;4998564;28;20582;-69
2023/06/15 06:45:19;;;;;;;;;;;18.90;67.30;;;;;;4990342;28;19971;-68
2023/06/15 06:47:45;;;;;;;;;;;18.90;67.20;;;;;;5036727;28;20320;-68
2023/06/15 06:50:10;;;;;;;;;;;18.90;67.10;;;;;;4995721;28;19920;-68
2023/06/15 06:52:36;;;;;;;;;;;18.90;67.10;;;;;;4996618;28;20677;-69
2023/06/15 06:55:03;;;;;;;;;;;18.90;67.00;;;;;;4987232;28;19914;-68
2023/06/15 06:57:28;;;;;;;;;;;18.90;67.00;;;;;;4995274;28;19913;-69
2023/06/15 06:59:54;;;;;;;;;;;19.00;66.90;;;;;;4987506;28;19924;-68
2023/06/15 07:02:19;;;;;;;;;;;19.00;66.90;;;;;;4999963;28;19913;-68
2023/06/15 07:04:45;;;;;;;;;;;19.00;66.80;;;;;;4989056;28;19915;-68
2023/06/15 07:07:10;;;;;;;;;;;19.00;66.70;;;;;;4993676;28;19967;-68
2023/06/15 07:09:36;;;;;;;;;;;19.00;66.70;;;;;;4988263;28;20780;-69
2023/06/15 07:12:01;;;;;;;;;;;19.00;66.60;;;;;;4990967;28;19952;-69
2023/06/15 07:14:27;;;;;;;;;;;19.10;66.60;;;;;;4994172;28;19921;-68
2023/06/15 07:16:52;;;;;;;;;;;19.10;66.60;;;;;;4988249;28;19952;-68
2023/06/15 07:19:18;;;;;;;;;;;19.10;66.50;;;;;;4994558;28;19914;-68
2023/06/15 07:21:43;;;;;;;;;;;19.10;66.40;;;;;;4987853;28;19914;-68
2023/06/15 07:24:09;;;;;;;;;;;19.10;66.40;;;;;;4995535;28;19921;-69
2023/06/15 07:26:35;;;;;;;;;;;19.10;66.40;;;;;;4987760;28;20034;-68
2023/06/15 07:29:00;;;;;;;;;;;19.20;66.30;;;;;;5010459;28;19915;-69
2023/06/15 07:31:26;;;;;;;;;;;19.10;66.20;;;;;;4993002;28;20664;-68
2023/06/15 07:33:53;;;;;;;;;;;19.20;66.20;;;;;;4996366;28;19938;-68
2023/06/15 07:36:19;;;;;;;;;;;19.20;66.10;;;;;;4985718;28;19913;-68
2023/06/15 07:38:44;;;;;;;;;;;19.20;66.00;;;;;;4998036;28;19996;-68
2023/06/15 07:41:10;;;;;;;;;;;19.30;66.00;;;;;;4986389;28;19913;-68
2023/06/15 07:43:35;;;;;;;;;;;19.30;65.80;;;;;;4996001;28;19910;-68
2023/06/15 07:46:01;;;;;;;;;;;19.30;65.70;;;;;;4999566;28;19918;-68
2023/06/15 07:48:26;;;;;;;;;;;19.40;65.80;;;;;;5019602;28;19918;-69
2023/06/15 07:50:52;;;;;;;;;;;19.30;65.60;;;;;;4968666;28;19945;-69
2023/06/15 07:53:17;;;;;;;;;;;19.40;65.40;;;;;;4979123;28;19917;-69
2023/06/15 07:55:44;;;;;;;;;;;19.40;65.30;;;;;;4986925;28;19958;-69
2023/06/15 07:58:10;;;;;;;;;;;19.40;65.40;;;;;;4987328;28;19917;-69
2023/06/15 08:00:35;;;;;;;;;;;19.40;65.10;;;;;;4990431;28;19913;-69
2023/06/15 08:03:01;;;;;;;;;;;19.40;65.20;;;;;;5005385;28;19913;-68
2023/06/15 08:05:26;;;;;;;;;;;19.50;65.20;;;;;;4993476;28;20596;-68
2023/06/15 08:07:52;;;;;;;;;;;19.50;65.00;;;;;;4981398;28;19918;-69
2023/06/15 08:10:18;;;;;;;;;;;19.60;65.00;;;;;;4967662;28;19910;-68
2023/06/15 08:12:43;;;;;;;;;;;19.60;65.00;;;;;;4967863;28;20248;-69
2023/06/15 08:15:09;;;;;;;;;;;19.60;64.80;;;;;;4967541;28;19983;-68
2023/06/15 08:17:34;;;;;;;;;;;19.60;64.90;;;;;;4984853;28;20512;-69
2023/06/15 08:20:00;;;;;;;;;;;19.60;64.70;;;;;;4987055;28;20437;-69
2023/06/15 08:22:27;;;;;;;;;;;19.60;64.70;;;;;;4986937;28;20038;-69
2023/06/15 08:24:53;;;;;;;;;;;19.70;64.70;;;;;;4986842;28;19965;-68
2023/06/15 08:27:19;;;;;;;;;;;19.70;64.50;;;;;;4986804;28;19965;-68
2023/06/15 08:29:44;;;;;;;;;;;19.70;64.40;;;;;;4985701;28;19913;-69
2023/06/15 08:32:13;;;;;;;;;;;19.80;64.40;;;;;;5002859;28;19913;-69
2023/06/15 08:34:42;;;;;;;;;;;19.80;64.30;;;;;;5006281;28;19913;-69
2023/06/15 08:37:09;;;;;;;;;;;19.80;64.30;;;;;;5005823;28;20554;-69
2023/06/15 08:39:35;;;;;;;;;;;19.90;64.20;;;;;;4986614;28;20004;-68
2023/06/15 08:42:02;;;;;;;;;;;19.90;64.10;;;;;;4986849;28;20601;-69
2023/06/15 08:44:30;;;;;;;;;;;20.00;64.10;;;;;;4985542;28;20477;-69
2023/06/15 08:46:56;;;;;;;;;;;20.00;63.90;;;;;;4983118;28;19998;-69
2023/06/15 08:49:23;;;;;;;;;;;20.00;63.80;;;;;;4986397;28;20689;-69
2023/06/15 08:51:49;;;;;;;;;;;20.00;63.70;;;;;;4986395;28;20690;-69
2023/06/15 08:54:18;;;;;;;;;;;20.10;63.70;;;;;;4986868;28;20593;-69
2023/06/15 08:56:43;;;;;;;;;;;20.10;63.50;;;;;;4986190;28;19917;-69
2023/06/15 08:59:09;;;;;;;;;;;20.20;63.50;;;;;;4984643;28;19914;-69
2023/06/15 09:01:39;;;;;;;;;;;20.20;63.30;;;;;;4997651;28;19972;-69
2023/06/15 09:04:05;;;;;;;;;;;20.30;63.30;;;;;;5005143;28;19917;-69
2023/06/15 09:06:30;;;;;;;;;;;20.30;63.20;;;;;;4986079;28;19918;-69
2023/06/15 09:08:56;;;;;;;;;;;20.30;63.10;;;;;;4972116;28;19921;-69
2023/06/15 09:11:22;;;;;;;;;;;20.40;63.10;;;;;;4966783;28;19952;-69
2023/06/15 09:13:49;;;;;;;;;;;20.40;62.90;;;;;;4966908;28;20587;-69
2023/06/15 09:16:14;;;;;;;;;;;20.50;62.90;;;;;;4973496;28;19913;-68
2023/06/15 09:18:47;;;;;;;;;;;20.60;62.90;;;;;;4984893;28;19955;-69
2023/06/15 09:21:14;;;;;;;;;;;20.50;62.80;;;;;;4984577;28;19914;-68
2023/06/15 09:23:40;;;;;;;;;;;20.60;62.80;;;;;;4987082;28;19991;-68
2023/06/15 09:26:07;;;;;;;;;;;20.60;62.70;;;;;;5003036;28;19953;-69
2023/06/15 09:28:33;;;;;;;;;;;20.70;62.70;;;;;;5005610;28;19963;-68
2023/06/15 09:30:59;;;;;;;;;;;20.70;62.50;;;;;;5004186;28;19913;-68
2023/06/15 09:33:26;;;;;;;;;;;20.80;62.50;;;;;;5005746;28;19940;-68
2023/06/15 09:35:56;;;;;;;;;;;20.90;62.30;;;;;;5005395;28;19924;-69
2023/06/15 09:38:21;;;;;;;;;;;21.00;62.20;;;;;;5001091;28;19991;-68
2023/06/15 09:40:47;;;;;;;;;;;21.00;62.70;;;;;;5080942;28;20304;-69
2023/06/15 09:43:13;;;;;;;;;;;21.10;61.90;;;;;;5088308;28;20008;-68
2023/06/15 09:45:51;;;;;;;;;;;21.20;61.80;;;;;;5029026;28;19949;-69
2023/06/15 09:48:16;;;;;;;;;;;21.30;61.70;;;;;;4985668;28;19918;-68
2023/06/15 09:50:42;;;;;;;;;;;21.30;61.50;;;;;;4985943;28;19921;-68
2023/06/15 09:53:11;;;;;;;;;;;21.40;61.40;;;;;;4985949;28;19910;-68
2023/06/15 09:55:37;;;;;;;;;;;21.50;61.40;;;;;;4985685;28;20770;-68
2023/06/15 09:58:03;;;;;;;;;;;21.60;61.20;;;;;;4985977;28;19964;-68
2023/06/15 10:00:29;;;;;;;;;;;21.70;61.00;;;;;;4988293;28;20010;-68
2023/06/15 10:02:57;;;;;;;;;;;21.80;60.90;;;;;;5004072;28;20054;-68
2023/06/15 10:05:28;;;;;;;;;;;21.90;60.90;;;;;;4992914;28;19917;-68
2023/06/15 10:07:53;;;;;;;;;;;21.90;60.80;;;;;;4979003;28;20504;-68
2023/06/15 10:10:19;;;;;;;;;;;22.00;60.60;;;;;;4965813;28;19914;-70
2023/06/15 10:12:47;;;;;;;;;;;22.10;60.30;;;;;;4968276;28;19968;-68
2023/06/15 10:15:15;;;;;;;;;;;22.20;60.10;;;;;;4968825;28;19988;-68
2023/06/15 10:17:42;;;;;;;;;;;22.20;60.20;;;;;;4987812;28;19909;-68
2023/06/15 10:20:09;;;;;;;;;;;22.20;60.70;;;;;;4989207;28;19998;-68
2023/06/15 10:22:39;;;;;;;;;;;22.20;60.90;;;;;;4988878;28;19983;-68
2023/06/15 10:25:05;;;;;;;;;;;22.30;60.70;;;;;;4989146;28;19914;-68
2023/06/15 10:27:31;;;;;;;;;;;22.40;60.80;;;;;;4989116;28;19921;-68
2023/06/15 10:30:02;;;;;;;;;;;22.40;60.60;;;;;;4989223;28;20313;-68
2023/06/15 10:32:31;;;;;;;;;;;22.40;60.60;;;;;;5021528;28;19921;-68
2023/06/15 10:35:16;;;;;;;;;;;22.40;60.70;;;;;;5008510;28;20326;-68
2023/06/15 10:37:50;;;;;;;;;;;22.50;60.50;;;;;;5004291;28;20029;-68
2023/06/15 10:40:20;;;;;;;;;;;22.60;60.70;;;;;;4988829;28;19917;-69
2023/06/15 10:42:49;;;;;;;;;;;22.70;60.60;;;;;;4988750;28;19910;-69
2023/06/15 10:45:31;;;;;;;;;;;22.80;60.60;;;;;;4984284;28;20004;-68
2023/06/15 10:47:58;;;;;;;;;;;22.90;60.50;;;;;;4985833;28;19949;-68
2023/06/15 10:50:29;;;;;;;;;;;23.00;60.30;;;;;;4988691;28;20042;-68
2023/06/15 10:52:54;;;;;;;;;;;23.10;60.30;;;;;;4988594;28;19914;-68
2023/06/15 10:55:23;;;;;;;;;;;23.20;60.00;;;;;;4988043;28;19970;-68
2023/06/15 10:58:09;;;;;;;;;;;23.30;60.00;;;;;;4988587;28;19921;-68
2023/06/15 11:00:40;;;;;;;;;;;23.40;60.10;;;;;;4991310;28;19992;-69
2023/06/15 11:03:22;;;;;;;;;;;23.50;59.80;;;;;;5007524;28;19949;-68
2023/06/15 11:05:47;;;;;;;;;;;23.60;59.50;;;;;;4993107;28;19936;-67
2023/06/15 11:08:17;;;;;;;;;;;23.70;59.30;;;;;;4979836;28;19914;-70
2023/06/15 11:10:43;;;;;;;;;;;23.90;59.40;;;;;;4968861;28;19914;-67
2023/06/15 11:13:08;;;;;;;;;;;24.00;59.60;;;;;;4969100;28;19910;-67
2023/06/15 11:15:37;;;;;;;;;;;24.10;59.40;;;;;;4970240;28;19918;-68
2023/06/15 11:18:12;;;;;;;;;;;24.20;59.40;;;;;;4988292;28;19964;-67
2023/06/15 11:20:42;;;;;;;;;;;24.30;59.30;;;;;;4988146;28;19998;-67
2023/06/15 11:23:10;;;;;;;;;;;24.40;58.90;;;;;;4987429;28;20433;-68
2023/06/15 11:25:36;;;;;;;;;;;24.50;59.10;;;;;;4987659;28;19917;-68
2023/06/15 11:28:02;;;;;;;;;;;24.60;59.60;;;;;;4988203;28;19914;-68
2023/06/15 11:30:29;;;;;;;;;;;24.60;59.50;;;;;;4991568;28;19969;-67
2023/06/15 11:32:55;;;;;;;;;;;24.70;59.30;;;;;;5007333;28;19996;-67
2023/06/15 11:35:20;;;;;;;;;;;24.80;59.20;;;;;;5007052;28;20425;-68
2023/06/15 11:37:47;;;;;;;;;;;24.90;59.10;;;;;;5002519;28;19918;-68
2023/06/15 11:40:15;;;;;;;;;;;25.00;58.90;;;;;;5002303;28;19964;-68
2023/06/15 11:42:41;;;;;;;;;;;25.00;58.90;;;;;;4987795;28;19929;-68
2023/06/15 11:45:12;;;;;;;;;;;25.10;59.00;;;;;;4983465;28;20332;-67
2023/06/15 11:47:40;;;;;;;;;;;25.20;59.00;;;;;;5032869;28;19916;-68
2023/06/15 11:50:06;;;;;;;;;;;25.30;59.20;;;;;;5000899;28;19918;-68
2023/06/15 11:52:31;;;;;;;;;;;25.30;59.10;;;;;;5029862;28;20298;-68
2023/06/15 11:55:07;;;;;;;;;;;25.40;58.90;;;;;;5047157;28;19922;-68
2023/06/15 11:57:33;;;;;;;;;;;25.50;58.90;;;;;;5028714;28;20506;-67
2023/06/15 12:00:00;;;;;;;;;;;25.60;58.90;;;;;;5001355;28;19952;-68
2023/06/15 12:02:25;;;;;;;;;;;25.70;59.00;;;;;;5004713;28;20006;-68
2023/06/15 12:04:56;;;;;;;;;;;25.70;58.90;;;;;;4999116;28;19963;-67
2023/06/15 12:07:21;;;;;;;;;;;25.80;59.00;;;;;;4981796;28;19914;-67
2023/06/15 12:09:47;;;;;;;;;;;25.90;58.90;;;;;;4981794;28;19921;-68
2023/06/15 12:12:31;;;;;;;;;;;25.90;58.90;;;;;;4984634;28;19914;-68
2023/06/15 12:15:04;;;;;;;;;;;25.90;59.10;;;;;;4984879;28;19929;-67
2023/06/15 12:17:34;;;;;;;;;;;26.00;59.00;;;;;;4990811;28;20507;-67
2023/06/15 12:19:59;;;;;;;;;;;26.00;59.00;;;;;;4987076;28;20542;-67
2023/06/15 12:22:32;;;;;;;;;;;26.10;59.10;;;;;;4990356;28;19917;-68
2023/06/15 12:24:59;;;;;;;;;;;26.20;58.90;;;;;;4986515;28;20619;-68
2023/06/15 12:27:24;;;;;;;;;;;26.30;58.90;;;;;;4990281;28;19914;-67
2023/06/15 12:29:53;;;;;;;;;;;26.40;58.90;;;;;;4985085;28;19938;-67
2023/06/15 12:32:22;;;;;;;;;;;26.40;58.50;;;;;;4993682;28;19926;-67
2023/06/15 12:34:49;;;;;;;;;;;26.50;58.60;;;;;;4993540;28;19911;-67
2023/06/15 12:37:15;;;;;;;;;;;26.50;58.70;;;;;;4982991;28;19925;-67
2023/06/15 12:39:41;;;;;;;;;;;26.60;58.50;;;;;;4992531;28;19909;-67
2023/06/15 12:42:07;;;;;;;;;;;26.60;58.30;;;;;;4992932;28;19921;-67
2023/06/15 12:44:34;;;;;;;;;;;26.70;58.40;;;;;;4982021;28;19957;-67
2023/06/15 12:46:59;;;;;;;;;;;26.60;58.50;;;;;;5048781;28;19912;-67
2023/06/15 12:49:25;;;;;;;;;;;26.70;58.70;;;;;;4983653;28;19914;-64
2023/06/15 12:51:51;;;;;;;;;;;26.80;58.70;;;;;;4994148;28;19995;-64
2023/06/15 12:54:16;;;;;;;;;;;26.80;58.60;;;;;;4985000;28;20005;-64
2023/06/15 12:56:42;;;;;;;;;;;26.90;58.60;;;;;;5019375;28;19943;-64
2023/06/15 12:59:07;;;;;;;;;;;27.00;58.30;;;;;;4987087;28;19921;-64
2023/06/15 13:01:33;;;;;;;;;;;27.10;58.10;;;;;;4993398;28;19948;-64
2023/06/15 13:03:58;;;;;;;;;;;27.10;58.10;;;;;;4983805;28;20047;-67
2023/06/15 13:06:24;;;;;;;;;;;27.20;58.10;;;;;;4993804;28;20618;-66
2023/06/15 13:08:50;;;;;;;;;;;27.20;58.50;;;;;;4983010;28;20390;-67
2023/06/15 13:11:15;;;;;;;;;;;27.30;57.90;;;;;;4995266;28;19963;-67
2023/06/15 13:13:41;;;;;;;;;;;27.30;58.10;;;;;;4997961;28;19949;-66
2023/06/15 13:16:06;;;;;;;;;;;27.40;58.30;;;;;;4986827;28;19996;-67
2023/06/15 13:18:32;;;;;;;;;;;27.40;58.20;;;;;;4986737;28;19921;-66
2023/06/15 13:20:58;;;;;;;;;;;27.50;58.10;;;;;;4994923;28;20515;-67
2023/06/15 13:23:24;;;;;;;;;;;27.60;58.10;;;;;;4980799;28;19968;-67
2023/06/15 13:25:49;;;;;;;;;;;27.60;57.80;;;;;;4994948;28;19968;-67
2023/06/15 13:28:15;;;;;;;;;;;27.60;57.90;;;;;;4983289;28;19917;-67
2023/06/15 13:30:40;;;;;;;;;;;27.70;57.90;;;;;;4984687;28;20001;-67
2023/06/15 13:33:06;;;;;;;;;;;27.70;57.80;;;;;;4988508;28;19949;-68
2023/06/15 13:35:32;;;;;;;;;;;27.60;57.90;;;;;;4992247;28;19913;-67
2023/06/15 13:37:58;;;;;;;;;;;27.60;57.80;;;;;;4984194;28;20558;-67
2023/06/15 13:40:24;;;;;;;;;;;27.70;58.00;;;;;;4988475;28;19913;-67
2023/06/15 13:42:50;;;;;;;;;;;27.60;57.80;;;;;;5021144;28;20011;-67
2023/06/15 13:45:21;;;;;;;;;;;27.60;57.60;;;;;;5011601;28;19916;-67
2023/06/15 13:47:47;;;;;;;;;;;27.60;58.00;;;;;;4987610;28;19924;-67
2023/06/15 13:50:14;;;;;;;;;;;27.60;58.10;;;;;;4978725;28;20033;-67
2023/06/15 13:52:40;;;;;;;;;;;27.40;58.00;;;;;;4969403;28;20566;-67
2023/06/15 13:55:06;;;;;;;;;;;27.40;58.30;;;;;;5028304;28;19922;-67
2023/06/15 13:57:32;;;;;;;;;;;27.40;58.40;;;;;;5091810;28;19912;-67
2023/06/15 13:59:57;;;;;;;;;;;27.50;58.20;;;;;;5050193;28;19913;-67
2023/06/15 14:02:23;;;;;;;;;;;27.60;57.80;;;;;;4988818;28;20298;-67
2023/06/15 14:04:48;;;;;;;;;;;27.50;57.70;;;;;;4987987;28;20643;-67
2023/06/15 14:07:14;;;;;;;;;;;27.50;57.60;;;;;;4986930;28;19914;-67
2023/06/15 14:09:40;;;;;;;;;;;27.70;57.70;;;;;;4968997;28;19921;-67
2023/06/15 14:12:06;;;;;;;;;;;27.70;57.50;;;;;;4969366;28;19917;-67